Time;durP1;ratioP1;P1;durP2;ratioP2;P2;SDS_P1;SDS_P2;PMS_P1;PMS_P2;Temp;Humidity;BMP_temperature;BMP_pressure;BME280_temperature;BME280_humidity;BME280_pressure;Samples;Min_cycle;Max_cycle;Signal;HPM_P1;HPM_P2
2023/01/23 00:00:41;;;;;;;18.20;16.50;;;;;;;1.42;100.00;99201.55;108849;1297;22175;-88
2023/01/23 00:03:17;;;;;;;18.90;17.10;;;;;;;1.49;100.00;99203.51;108744;1297;22233;-90
2023/01/23 00:05:54;;;;;;;17.10;15.60;;;;;;;1.51;100.00;99207.70;108915;1297;22597;-90
2023/01/23 00:08:22;;;;;;;19.50;17.50;;;;;;;1.52;100.00;99212.00;108843;1297;22211;-90
2023/01/23 00:10:51;;;;;;;20.60;18.80;;;;;;;1.52;100.00;99210.94;108863;1297;22403;-90
2023/01/23 00:13:19;;;;;;;21.20;19.20;;;;;;;1.49;100.00;99211.39;108725;1297;22351;-91
2023/01/23 00:15:48;;;;;;;19.30;17.50;;;;;;;1.49;100.00;99222.05;108827;1297;22323;-91
2023/01/23 00:18:16;;;;;;;18.50;16.80;;;;;;;1.51;100.00;99227.40;108700;1297;22262;-91
2023/01/23 00:20:44;;;;;;;17.90;16.20;;;;;;;1.55;100.00;99224.37;108898;1297;22198;-91
2023/01/23 00:23:12;;;;;;;17.10;15.50;;;;;;;1.55;100.00;99222.86;108933;1297;22218;-91
2023/01/23 00:25:40;;;;;;;32.40;29.40;;;;;;;1.52;100.00;99222.52;108888;1297;22139;-88
2023/01/23 00:28:08;;;;;;;25.20;23.10;;;;;;;1.50;100.00;99224.27;108928;1297;22262;-91
2023/01/23 00:30:37;;;;;;;21.10;19.10;;;;;;;1.48;100.00;99237.02;108727;1297;22315;-89
2023/01/23 00:33:05;;;;;;;19.70;18.00;;;;;;;1.47;100.00;99232.93;108773;1297;22243;-88
2023/01/23 00:35:34;;;;;;;18.60;16.90;;;;;;;1.50;100.00;99235.16;108929;1297;22164;-90
2023/01/23 00:38:02;;;;;;;17.70;16.20;;;;;;;1.55;100.00;99234.31;108920;1297;22159;-91
2023/01/23 00:40:30;;;;;;;19.30;17.60;;;;;;;1.56;100.00;99235.24;108916;1297;22296;-88
2023/01/23 00:42:59;;;;;;;17.90;16.30;;;;;;;1.55;100.00;99241.90;108881;1297;22244;-92
2023/01/23 00:45:27;;;;;;;18.80;17.10;;;;;;;1.55;100.00;99256.58;108922;1297;22306;-91
2023/01/23 00:47:55;;;;;;;14.90;13.50;;;;;;;1.58;100.00;99259.43;108938;1297;22206;-91
2023/01/23 00:50:22;;;;;;;16.50;14.90;;;;;;;1.62;100.00;99261.75;108996;1297;22184;-91
2023/01/23 00:52:50;;;;;;;16.90;15.30;;;;;;;1.63;100.00;99261.84;108693;1297;22283;-93
2023/01/23 00:55:18;;;;;;;17.50;15.90;;;;;;;1.62;100.00;99262.80;108984;1297;22191;-93
2023/01/23 00:57:46;;;;;;;18.20;16.60;;;;;;;1.56;100.00;99260.21;108974;1297;22256;-92
2023/01/23 01:00:15;;;;;;;21.10;19.30;;;;;;;1.50;100.00;99261.33;108667;1297;22151;-92
2023/01/23 01:02:44;;;;;;;16.00;14.50;;;;;;;1.46;100.00;99264.93;108923;1297;23155;-92
2023/01/23 01:05:16;;;;;;;16.50;14.90;;;;;;;1.46;100.00;99262.52;108903;1297;22152;-92
2023/01/23 01:07:47;;;;;;;18.00;16.40;;;;;;;1.46;100.00;99259.82;108870;1297;22315;-92
2023/01/23 01:10:15;;;;;;;17.10;15.50;;;;;;;1.46;100.00;99256.67;108764;1297;22280;-90
2023/01/23 01:12:45;;;;;;;17.70;16.10;;;;;;;1.44;100.00;99261.86;108935;1297;22856;-92
2023/01/23 01:15:14;;;;;;;18.50;16.90;;;;;;;1.41;100.00;99263.27;108938;1297;22241;-91
2023/01/23 01:17:41;;;;;;;16.30;14.80;;;;;;;1.38;100.00;99262.27;108924;1297;22172;-92
2023/01/23 01:20:11;;;;;;;15.10;13.60;;;;;;;1.38;100.00;99263.91;109003;1297;22865;-91
2023/01/23 01:22:39;;;;;;;16.00;14.50;;;;;;;1.40;100.00;99264.41;108757;1297;22155;-92
2023/01/23 01:25:07;;;;;;;19.60;18.00;;;;;;;1.39;100.00;99263.77;108943;1297;22197;-92
2023/01/23 01:27:35;;;;;;;19.00;17.40;;;;;;;1.41;100.00;99268.31;108912;1297;22228;-91
2023/01/23 01:30:03;;;;;;;18.00;16.40;;;;;;;1.42;100.00;99264.57;108730;1297;22247;-93
2023/01/23 01:32:35;;;;;;;32.20;29.20;;;;;;;1.45;100.00;99265.59;108904;1297;23055;-92
2023/01/23 01:35:05;;;;;;;16.50;15.00;;;;;;;1.47;100.00;99258.95;108923;1297;22958;-91
2023/01/23 01:37:35;;;;;;;17.60;16.00;;;;;;;1.46;100.00;99255.08;108663;1297;22151;-90
2023/01/23 01:40:12;;;;;;;16.00;14.60;;;;;;;1.45;100.00;99258.02;108739;1297;22317;-89
2023/01/23 01:42:47;;;;;;;15.00;13.50;;;;;;;1.37;100.00;99261.17;108880;1297;22330;-91
2023/01/23 01:45:52;;;;;;;13.70;12.50;;;;;;;1.31;100.00;99268.45;108732;1297;22142;-91
2023/01/23 01:48:25;;;;;;;13.80;12.30;;;;;;;1.32;100.00;99267.31;108737;1297;22930;-92
2023/01/23 01:50:53;;;;;;;13.80;12.50;;;;;;;1.37;100.00;99272.90;108884;1297;22192;-92
2023/01/23 01:53:24;;;;;;;15.40;13.90;;;;;;;1.40;100.00;99273.88;108743;1297;22204;-91
2023/01/23 01:55:57;;;;;;;16.10;14.70;;;;;;;1.41;100.00;99279.59;108749;1297;22301;-90
2023/01/23 01:58:27;;;;;;;16.20;14.70;;;;;;;1.41;100.00;99278.57;108726;1297;22265;-90
2023/01/23 02:00:55;;;;;;;12.90;11.70;;;;;;;1.41;100.00;99280.89;108907;1297;22130;-90
2023/01/23 02:03:25;;;;;;;13.60;12.30;;;;;;;1.42;100.00;99276.77;108878;1289;22125;-91
2023/01/23 02:05:53;;;;;;;14.60;13.20;;;;;;;1.46;100.00;99272.86;108736;1285;23027;-89
2023/01/23 02:08:28;;;;;;;13.40;12.20;;;;;;;1.47;100.00;99274.25;108864;1297;22153;-90
2023/01/23 02:11:00;;;;;;;13.40;12.10;;;;;;;1.42;100.00;99275.75;108879;1297;22207;-91
2023/01/23 02:13:34;;;;;;;13.80;12.50;;;;;;;1.36;100.00;99276.34;108960;1297;22174;-93
2023/01/23 02:16:28;;;;;;;13.50;12.20;;;;;;;1.35;100.00;99280.41;108608;1297;22216;-89
2023/01/23 02:19:03;;;;;;;11.80;10.70;;;;;;;1.37;100.00;99282.14;108866;1297;22275;-92
2023/01/23 02:21:32;;;;;;;12.90;11.70;;;;;;;1.41;100.00;99283.31;108716;1297;22304;-89
2023/01/23 02:24:41;;;;;;;13.50;12.20;;;;;;;1.45;100.00;99284.02;108812;1297;22205;-89
2023/01/23 02:27:09;;;;;;;19.40;17.60;;;;;;;1.46;100.00;99288.02;108032;1304;22247;-90
2023/01/23 02:29:44;;;;;;;16.90;15.30;;;;;;;1.46;100.00;99290.11;108041;1304;22156;-88
2023/01/23 02:32:13;;;;;;;15.20;13.80;;;;;;;1.45;100.00;99292.93;108127;1304;22928;-90
2023/01/23 02:34:43;;;;;;;13.90;12.60;;;;;;;1.48;100.00;99292.27;107937;1304;22354;-90
2023/01/23 02:37:13;;;;;;;12.80;11.60;;;;;;;1.51;100.00;99295.56;108103;1304;22357;-90
2023/01/23 02:39:41;;;;;;;13.60;12.40;;;;;;;1.53;100.00;99294.79;107886;1304;23151;-86
2023/01/23 02:42:10;;;;;;;15.60;14.30;;;;;;;1.55;100.00;99297.25;108014;1304;22286;-86
2023/01/23 02:44:45;;;;;;;13.90;12.60;;;;;;;1.56;100.00;99296.46;107927;1301;23110;-85
2023/01/23 02:47:14;;;;;;;14.10;12.80;;;;;;;1.52;100.00;99301.45;107914;1304;22410;-86
2023/01/23 02:49:42;;;;;;;12.90;11.80;;;;;;;1.52;100.00;99300.95;107944;1304;22802;-86
2023/01/23 02:52:11;;;;;;;12.50;11.40;;;;;;;1.53;100.00;99305.05;108069;1304;22275;-86
2023/01/23 02:54:39;;;;;;;12.50;11.40;;;;;;;1.55;100.00;99302.35;107910;1304;23104;-85
2023/01/23 02:57:08;;;;;;;12.40;11.30;;;;;;;1.54;100.00;99306.13;108117;1304;22339;-85
2023/01/23 03:02:23;;;;;;;12.60;11.40;;;;;;;1.54;100.00;99315.73;108060;1297;22209;-85
2023/01/23 03:04:51;;;;;;;13.20;11.90;;;;;;;1.56;100.00;99309.48;108876;1297;22246;-89
2023/01/23 03:07:19;;;;;;;12.80;11.60;;;;;;;1.59;100.00;99306.56;108850;1297;23129;-86
2023/01/23 03:09:48;;;;;;;14.30;13.10;;;;;;;1.58;100.00;99305.41;108857;1297;22238;-89
2023/01/23 03:12:17;;;;;;;14.70;13.30;;;;;;;1.60;100.00;99309.79;108850;1297;22208;-88
2023/01/23 03:14:45;;;;;;;12.00;10.90;;;;;;;1.59;100.00;99306.02;108786;1297;22313;-87
2023/01/23 03:17:14;;;;;;;11.90;10.60;;;;;;;1.51;100.00;99303.55;108867;1297;22214;-88
2023/01/23 03:19:42;;;;;;;11.80;10.50;;;;;;;1.43;100.00;99306.12;108810;1297;22287;-89
2023/01/23 03:22:10;;;;;;;13.10;11.90;;;;;;;1.35;100.00;99308.29;108848;1297;22245;-84
2023/01/23 03:24:39;;;;;;;13.70;12.40;;;;;;;1.34;100.00;99308.54;108837;1297;23098;-85
2023/01/23 03:27:07;;;;;;;15.50;14.00;;;;;;;1.39;100.00;99306.08;108883;1297;22208;-85
2023/01/23 03:32:29;;;;;;;21.40;19.30;;;;;;;1.40;100.00;99313.55;108694;1297;22241;-85
2023/01/23 03:34:58;;;;;;;22.70;20.60;;;;;;;1.38;100.00;99314.17;108705;1297;22325;-85
2023/01/23 03:37:26;;;;;;;20.90;19.00;;;;;;;1.37;100.00;99316.52;108876;1297;22888;-85
2023/01/23 03:42:41;;;;;;;20.00;17.90;;;;;;;1.42;100.00;99314.05;108676;1297;22981;-85
2023/01/23 03:45:11;;;;;;;21.10;19.20;;;;;;;1.40;100.00;99322.21;108669;1297;22951;-86
2023/01/23 03:47:39;;;;;;;21.30;19.10;;;;;;;1.41;100.00;99322.79;108905;1297;22962;-85
2023/01/23 03:50:07;;;;;;;19.90;18.00;;;;;;;1.40;100.00;99329.28;108834;1297;22582;-86
2023/01/23 03:52:37;;;;;;;19.10;17.30;;;;;;;1.38;100.00;99331.33;108691;1297;22182;-88
2023/01/23 03:55:06;;;;;;;20.00;18.10;;;;;;;1.39;100.00;99332.31;108801;1297;22176;-85
2023/01/23 03:57:34;;;;;;;22.20;20.10;;;;;;;1.41;100.00;99328.83;108882;1297;22198;-85
2023/01/23 04:00:31;;;;;;;21.80;19.80;;;;;;;1.44;100.00;99323.86;108698;1297;22250;-85
2023/01/23 04:03:01;;;;;;;24.80;22.40;;;;;;;1.41;100.00;99321.20;108642;1297;22248;-85
2023/01/23 04:05:29;;;;;;;28.00;25.50;;;;;;;1.35;100.00;99317.68;108836;1297;22194;-84
2023/01/23 04:07:57;;;;;;;28.00;25.40;;;;;;;1.32;100.00;99321.56;108885;1297;22225;-85
2023/01/23 04:10:27;;;;;;;27.30;24.70;;;;;;;1.28;100.00;99319.31;109128;1297;22421;-86
2023/01/23 04:12:59;;;;;;;25.80;23.50;;;;;;;1.28;100.00;99318.63;109015;1297;22949;-87
2023/01/23 04:15:27;;;;;;;25.30;23.10;;;;;;;1.28;100.00;99323.48;108769;1297;22136;-85
2023/01/23 04:17:57;;;;;;;26.10;23.70;;;;;;;1.30;100.00;99326.84;108821;1297;22212;-85
2023/01/23 04:20:25;;;;;;;25.00;22.70;;;;;;;1.31;100.00;99332.27;108839;1297;22157;-84
2023/01/23 04:22:53;;;;;;;33.70;30.50;;;;;;;1.31;100.00;99336.14;108860;1297;22129;-84
2023/01/23 04:25:22;;;;;;;32.80;29.90;;;;;;;1.35;100.00;99337.61;108903;1297;22206;-86
2023/01/23 04:27:50;;;;;;;24.30;22.00;;;;;;;1.41;100.00;99340.36;109022;1297;22286;-87
2023/01/23 04:30:18;;;;;;;24.60;22.40;;;;;;;1.47;100.00;99347.23;109117;1297;23083;-87
2023/01/23 04:32:46;;;;;;;25.50;23.20;;;;;;;1.50;100.00;99354.71;109067;1294;22683;-86
2023/01/23 04:35:15;;;;;;;25.60;23.20;;;;;;;1.53;100.00;99353.23;108794;1297;22342;-84
2023/01/23 04:37:43;;;;;;;25.40;23.20;;;;;;;1.53;100.00;99349.71;108835;1297;22349;-85
2023/01/23 04:40:12;;;;;;;25.40;23.10;;;;;;;1.50;100.00;99353.77;108822;1297;22321;-85
2023/01/23 04:43:00;;;;;;;20.30;18.40;;;;;;;1.48;100.00;99348.58;108902;1297;22335;-86
2023/01/23 04:45:35;;;;;;;;;;;;;;;1.43;100.00;99351.97;108932;1297;22404;-89
2023/01/23 04:48:06;;;;;;;21.70;19.80;;;;;;;1.39;100.00;99350.33;108902;1297;22229;-87
2023/01/23 04:50:35;;;;;;;20.90;19.00;;;;;;;1.39;100.00;99350.41;108862;1297;22259;-87
2023/01/23 04:53:04;;;;;;;20.50;18.80;;;;;;;1.39;100.00;99354.45;108841;1297;22739;-87
2023/01/23 04:55:33;;;;;;;21.00;19.10;;;;;;;1.40;100.00;99354.78;108648;1297;23428;-86
2023/01/23 04:58:04;;;;;;;17.70;16.10;;;;;;;1.39;100.00;99349.59;109193;1297;22145;-83
2023/01/23 05:00:32;;;;;;;15.60;14.20;;;;;;;1.37;100.00;99351.07;109357;1285;22147;-88
2023/01/23 05:03:01;;;;;;;14.60;13.30;;;;;;;1.38;100.00;99352.45;109268;1297;21945;-85
2023/01/23 05:05:30;;;;;;;14.20;12.80;;;;;;;1.37;100.00;99354.98;108968;1297;22184;-87
2023/01/23 05:08:00;;;;;;;14.30;13.10;;;;;;;1.38;100.00;99361.28;109237;1297;22067;-85
2023/01/23 05:10:29;;;;;;;13.60;12.40;;;;;;;1.37;100.00;99367.16;109022;1297;22216;-85
2023/01/23 05:12:58;;;;;;;15.40;14.00;;;;;;;1.34;100.00;99371.17;109023;1297;22041;-84
2023/01/23 05:15:26;;;;;;;17.70;16.20;;;;;;;1.33;100.00;99374.85;109024;1297;22227;-85
2023/01/23 05:17:57;;;;;;;22.00;19.70;;;;;;;1.33;100.00;99370.71;109034;1297;22312;-84
2023/01/23 05:20:27;;;;;;;23.10;20.70;;;;;;;1.35;100.00;99372.80;108857;1297;22173;-87
2023/01/23 05:22:58;;;;;;;20.20;18.20;;;;;;;1.38;100.00;99373.66;108915;1291;22943;-87
2023/01/23 05:25:35;;;;;;;27.50;24.80;;;;;;;1.40;100.00;99377.83;108744;1297;22134;-88
2023/01/23 05:28:03;;;;;;;22.80;20.50;;;;;;;1.44;100.00;99381.89;108980;1297;23140;-89
2023/01/23 05:30:31;;;;;;;23.20;21.00;;;;;;;1.47;100.00;99384.54;108964;1297;22262;-89
2023/01/23 05:33:16;;;;;;;26.00;23.60;;;;;;;1.52;100.00;99382.25;108894;1297;22235;-89
2023/01/23 05:35:44;;;;;;;27.00;24.50;;;;;;;1.57;100.00;99381.39;108819;1297;22416;-88
2023/01/23 05:38:13;;;;;;;23.80;21.60;;;;;;;1.61;100.00;99383.58;108719;1297;22289;-86
2023/01/23 05:40:42;;;;;;;22.10;20.10;;;;;;;1.61;100.00;99384.05;108858;1297;22879;-89
2023/01/23 05:43:15;;;;;;;21.90;20.00;;;;;;;1.59;100.00;99388.92;108892;1297;22229;-87
2023/01/23 05:46:06;;;;;;;18.90;17.20;;;;;;;1.54;100.00;99391.37;108523;1297;22293;-88
2023/01/23 05:48:50;;;;;;;17.70;16.00;;;;;;;1.51;100.00;99386.38;108848;1297;22272;-89
2023/01/23 05:51:22;;;;;;;18.10;16.40;;;;;;;1.52;100.00;99390.52;108874;1297;22194;-87
2023/01/23 05:53:50;;;;;;;15.10;13.70;;;;;;;1.54;100.00;99390.14;108696;1297;22223;-91
2023/01/23 05:56:18;;;;;;;16.40;15.00;;;;;;;1.51;100.00;99393.13;108892;1297;22979;-85
2023/01/23 05:59:05;;;;;;;17.20;15.70;;;;;;;1.49;100.00;99400.89;108900;1297;23093;-87
2023/01/23 06:01:41;;;;;;;15.40;14.00;;;;;;;1.49;100.00;99406.94;108711;1297;22729;-85
2023/01/23 06:04:28;;;;;;;14.50;13.20;;;;;;;1.55;100.00;99407.07;108846;1297;22244;-87
2023/01/23 06:07:12;;;;;;;14.90;13.50;;;;;;;1.58;100.00;99410.46;108852;1297;22283;-90
2023/01/23 06:09:42;;;;;;;16.60;15.10;;;;;;;1.58;100.00;99411.37;108739;1297;22180;-90
2023/01/23 06:12:10;;;;;;;17.90;16.30;;;;;;;1.60;100.00;99412.77;108693;1297;22242;-85
2023/01/23 06:14:39;;;;;;;19.80;18.10;;;;;;;1.59;100.00;99416.15;108585;1297;23225;-86
2023/01/23 06:17:07;;;;;;;18.40;16.70;;;;;;;1.57;100.00;99420.93;108884;1297;22189;-87
2023/01/23 06:19:35;;;;;;;17.90;16.40;;;;;;;1.57;100.00;99425.30;108891;1297;22208;-86
2023/01/23 06:22:04;;;;;;;24.20;21.90;;;;;;;1.62;100.00;99428.90;108821;1297;22262;-86
2023/01/23 06:24:41;;;;;;;35.80;32.80;;;;;;;1.67;100.00;99431.28;108860;1297;22244;-87
2023/01/23 06:27:09;;;;;;;43.70;39.80;;;;;;;1.70;100.00;99432.80;108880;1297;22230;-88
2023/01/23 06:29:38;;;;;;;39.80;36.20;;;;;;;1.70;100.00;99433.16;108855;1297;22290;-87
2023/01/23 06:32:07;;;;;;;31.80;29.00;;;;;;;1.69;100.00;99435.17;108533;1297;22333;-87
2023/01/23 06:34:35;;;;;;;33.80;30.70;;;;;;;1.69;100.00;99433.70;108878;1297;22247;-88
2023/01/23 06:37:04;;;;;;;33.70;29.40;;;;;;;1.68;100.00;99434.10;108829;1297;22253;-88
2023/01/23 06:39:33;;;;;;;37.70;34.50;;;;;;;1.71;100.00;99440.27;108701;1297;22903;-88
2023/01/23 06:42:01;;;;;;;49.20;44.70;;;;;;;1.76;100.00;99447.99;108689;1297;23118;-89
2023/01/23 06:44:29;;;;;;;50.80;46.40;;;;;;;1.78;100.00;99451.27;108948;1297;22152;-88
2023/01/23 06:46:59;;;;;;;39.90;36.40;;;;;;;1.77;100.00;99455.77;108480;1297;22197;-87
2023/01/23 06:49:27;;;;;;;39.10;35.30;;;;;;;1.77;100.00;99460.38;108869;1297;22134;-88
2023/01/23 06:51:56;;;;;;;34.40;31.30;;;;;;;1.80;100.00;99462.11;108924;1296;22208;-89
2023/01/23 06:54:25;;;;;;;35.10;32.00;;;;;;;1.83;100.00;99463.54;108718;1296;22238;-88
2023/01/23 06:56:58;;;;;;;36.40;33.10;;;;;;;1.84;100.00;99463.58;108828;1295;22219;-89
2023/01/23 06:59:26;;;;;;;31.60;28.90;;;;;;;1.82;100.00;99465.79;108539;1296;22382;-87
2023/01/23 07:01:54;;;;;;;45.90;41.90;;;;;;;1.79;100.00;99468.77;108613;1296;22425;-85
2023/01/23 07:04:34;;;;;;;61.90;55.80;;;;;;;1.73;100.00;99474.41;108846;1296;23056;-84
2023/01/23 07:07:02;;;;;;;58.80;53.30;;;;;;;1.68;100.00;99479.84;108889;1295;22293;-88
2023/01/23 07:09:31;;;;;;;64.30;58.50;;;;;;;1.64;100.00;99483.23;108775;1296;22241;-88
2023/01/23 07:12:10;;;;;;;73.10;66.50;;;;;;;1.60;100.00;99481.98;108885;1296;22227;-88
2023/01/23 07:14:38;;;;;;;72.30;65.70;;;;;;;1.55;100.00;99487.45;108956;1296;22257;-86
2023/01/23 07:17:08;;;;;;;77.90;70.90;;;;;;;1.55;100.00;99493.99;108799;1291;22318;-88
2023/01/23 07:19:36;;;;;;;73.00;66.30;;;;;;;1.55;100.00;99486.64;108899;1296;22236;-86
2023/01/23 07:22:06;;;;;;;69.60;63.20;;;;;;;1.57;100.00;99489.71;108766;1295;23434;-88
2023/01/23 07:24:34;;;;;;;66.20;60.10;;;;;;;1.64;100.00;99489.60;109005;1296;22234;-87
2023/01/23 07:27:02;;;;;;;64.50;58.50;;;;;;;1.71;100.00;99488.17;108981;1296;22264;-88
2023/01/23 07:29:30;;;;;;;66.20;59.90;;;;;;;1.77;100.00;99486.98;108961;1296;22157;-86
2023/01/23 07:31:59;;;;;;;64.90;59.00;;;;;;;1.80;100.00;99489.80;108900;1294;22737;-90
2023/01/23 07:34:29;;;;;;;64.10;58.40;;;;;;;1.83;100.00;99488.13;108989;1296;22157;-90
2023/01/23 07:37:01;;;;;;;52.60;47.90;;;;;;;1.84;100.00;99489.79;108839;1291;22628;-90
2023/01/23 07:39:29;;;;;;;42.00;38.10;;;;;;;1.87;100.00;99486.23;109004;1295;22170;-90
2023/01/23 07:41:58;;;;;;;27.80;25.10;;;;;;;1.93;100.00;99488.94;108756;1295;22186;-90
2023/01/23 07:44:33;;;;;;;17.50;15.90;;;;;;;1.96;100.00;99484.00;108906;1295;22125;-90
2023/01/23 07:47:02;;;;;;;16.20;14.80;;;;;;;1.91;100.00;99487.80;108712;1296;22117;-90
2023/01/23 07:49:30;;;;;;;13.90;12.60;;;;;;;1.90;100.00;99493.30;108912;1296;22243;-90
2023/01/23 07:51:58;;;;;;;13.60;12.30;;;;;;;1.87;100.00;99496.18;109007;1296;22547;-89
2023/01/23 07:54:26;;;;;;;15.20;13.80;;;;;;;1.84;100.00;99493.68;108813;1296;22115;-89
2023/01/23 07:56:55;;;;;;;12.70;11.60;;;;;;;1.80;100.00;99495.40;108749;1296;22202;-87
2023/01/23 07:59:23;;;;;;;14.90;13.50;;;;;;;1.80;100.00;99494.45;108975;1296;22237;-87
2023/01/23 08:01:51;;;;;;;13.20;11.90;;;;;;;1.80;100.00;99495.96;108835;1296;22299;-87
2023/01/23 08:04:19;;;;;;;15.90;13.20;;;;;;;1.81;100.00;99498.67;108969;1296;22917;-86
2023/01/23 08:06:47;;;;;;;16.40;14.80;;;;;;;1.83;100.00;99502.03;108839;1282;24698;-87
2023/01/23 08:09:16;;;;;;;15.00;13.60;;;;;;;1.88;100.00;99502.77;108852;1282;22247;-87
2023/01/23 08:11:44;;;;;;;22.60;20.50;;;;;;;1.97;100.00;99508.82;108932;1292;22377;-87
2023/01/23 08:14:12;;;;;;;16.10;14.50;;;;;;;2.06;100.00;99509.73;108873;1297;22999;-87
2023/01/23 08:16:39;;;;;;;17.00;15.30;;;;;;;2.11;100.00;99514.73;108667;1297;23418;-89
2023/01/23 08:19:09;;;;;;;14.90;13.60;;;;;;;2.17;100.00;99510.56;108855;1297;22105;-90
2023/01/23 08:21:37;;;;;;;13.60;12.40;;;;;;;2.18;100.00;99510.06;108879;1297;22124;-90
2023/01/23 08:24:05;;;;;;;12.30;11.20;;;;;;;2.24;100.00;99513.70;108876;1297;22489;-89
2023/01/23 08:26:33;;;;;;;12.20;11.10;;;;;;;2.32;100.00;99514.36;108936;1296;22215;-89
2023/01/23 08:29:01;;;;;;;13.30;12.10;;;;;;;2.36;100.00;99514.24;108887;1296;22302;-90
2023/01/23 08:31:29;;;;;;;14.10;12.90;;;;;;;2.40;100.00;99516.61;108830;1296;23080;-89
2023/01/23 08:33:57;;;;;;;18.90;17.40;;;;;;;2.38;100.00;99518.36;108999;1296;22328;-88
2023/01/23 08:36:26;;;;;;;15.50;14.10;;;;;;;2.41;100.00;99515.22;109286;1296;22203;-89
2023/01/23 08:38:54;;;;;;;23.80;22.00;;;;;;;2.44;100.00;99517.39;109006;1296;22963;-89
2023/01/23 08:41:23;;;;;;;18.00;16.40;;;;;;;2.52;100.00;99525.27;109008;1296;22777;-89
2023/01/23 08:43:51;;;;;;;15.80;14.40;;;;;;;2.61;100.00;99528.59;108713;1296;22291;-89
2023/01/23 08:46:19;;;;;;;13.60;12.40;;;;;;;2.67;100.00;99533.64;108785;1296;22246;-92
2023/01/23 08:48:48;;;;;;;12.50;11.40;;;;;;;2.67;100.00;99532.58;108914;1294;22127;-90
2023/01/23 08:51:16;;;;;;;15.20;14.00;;;;;;;2.67;100.00;99540.00;108960;1296;22230;-90
2023/01/23 08:53:44;;;;;;;13.20;12.00;;;;;;;2.66;100.00;99540.20;108934;1289;22202;-91
2023/01/23 08:56:14;;;;;;;20.90;19.10;;;;;;;2.68;100.00;99540.23;108858;1296;22188;-89
2023/01/23 08:58:45;;;;;;;19.10;17.30;;;;;;;2.68;100.00;99539.14;108840;1296;22936;-87
2023/01/23 09:01:18;;;;;;;17.90;16.30;;;;;;;2.68;100.00;99540.44;108828;1296;22207;-92
2023/01/23 09:03:47;;;;;;;22.00;20.20;;;;;;;2.63;100.00;99540.70;108653;1296;22219;-89
2023/01/23 09:06:18;;;;;;;16.00;14.60;;;;;;;2.60;100.00;99536.70;108812;1296;22920;-85
2023/01/23 09:08:46;;;;;;;14.70;13.30;;;;;;;2.51;100.00;99543.61;108933;1296;22212;-86
2023/01/23 09:11:15;;;;;;;14.70;13.40;;;;;;;2.47;100.00;99538.10;108946;1295;22220;-86
2023/01/23 09:13:45;;;;;;;15.80;14.50;;;;;;;2.52;100.00;99543.34;108970;1296;22265;-87
2023/01/23 09:16:13;;;;;;;13.70;12.50;;;;;;;2.58;100.00;99542.54;108854;1296;23306;-87
2023/01/23 09:18:41;;;;;;;15.30;14.10;;;;;;;2.60;100.00;99544.27;108976;1295;22236;-85
2023/01/23 09:21:13;;;;;;;16.60;15.00;;;;;;;2.59;100.00;99542.17;108990;1296;22168;-85
2023/01/23 09:23:41;;;;;;;18.40;16.70;;;;;;;2.57;100.00;99543.25;108865;1296;22208;-86
2023/01/23 09:26:10;;;;;;;16.60;15.20;;;;;;;2.58;100.00;99541.11;108953;1296;22344;-85
2023/01/23 09:28:41;;;;;;;15.60;14.30;;;;;;;2.62;100.00;99540.09;108847;1296;22242;-85
2023/01/23 09:31:12;;;;;;;16.40;14.80;;;;;;;2.62;100.00;99536.81;108850;1296;22164;-84
2023/01/23 09:33:40;;;;;;;16.30;14.90;;;;;;;2.62;100.00;99536.81;108835;1296;22186;-85
2023/01/23 09:36:08;;;;;;;15.20;13.80;;;;;;;2.61;100.00;99535.02;108728;1296;22242;-87
2023/01/23 09:38:36;;;;;;;14.90;13.50;;;;;;;2.57;100.00;99531.45;108701;1296;23227;-85
2023/01/23 09:41:15;;;;;;;14.90;13.60;;;;;;;2.55;100.00;99532.57;108906;1296;22244;-85
2023/01/23 09:43:50;;;;;;;15.00;13.70;;;;;;;2.60;100.00;99537.95;108801;1297;23134;-85
2023/01/23 09:46:31;;;;;;;14.30;13.00;;;;;;;2.65;100.00;99536.55;108840;1297;22828;-83
2023/01/23 09:49:09;;;;;;;15.10;13.70;;;;;;;2.67;100.00;99535.65;108682;1297;22197;-85
2023/01/23 09:51:57;;;;;;;16.90;15.30;;;;;;;2.65;100.00;99539.05;108839;1297;22321;-85
2023/01/23 09:55:12;;;;;;;14.50;13.10;;;;;;;2.63;100.00;99540.58;108498;1300;22295;-84
2023/01/23 09:57:53;;;;;;;17.90;16.30;;;;;;;2.64;100.00;99542.17;108287;1300;22277;-85
2023/01/23 10:00:27;;;;;;;17.70;16.10;;;;;;;2.70;100.00;99541.75;108400;1300;22207;-85
2023/01/23 10:02:56;;;;;;;19.40;17.80;;;;;;;2.72;99.99;99541.45;108490;1300;22477;-85
2023/01/23 10:06:07;;;;;;;20.40;18.60;;;;;;;2.67;99.98;99540.31;108374;1300;23037;-85
2023/01/23 10:08:53;;;;;;;18.60;17.00;;;;;;;2.60;99.97;99539.11;108494;1300;22961;-85
2023/01/23 10:11:58;;;;;;;17.90;16.30;;;;;;;2.55;99.96;99536.54;108500;1300;22301;-85
2023/01/23 10:15:01;;;;;;;15.00;13.70;;;;;;;2.51;99.98;99536.53;108506;1300;22257;-84
2023/01/23 10:17:36;;;;;;;16.00;14.60;;;;;;;2.47;99.81;99538.59;108493;1300;22237;-84
2023/01/23 10:20:13;;;;;;;17.00;15.50;;;;;;;2.43;99.94;99539.69;108361;1300;22301;-85
2023/01/23 10:23:01;;;;;;;16.90;15.50;;;;;;;2.39;99.89;99542.30;108502;1292;22399;-85
2023/01/23 10:25:36;;;;;;;16.60;15.10;;;;;;;2.35;99.97;99541.28;108493;1297;22997;-86
2023/01/23 10:28:16;;;;;;;31.20;28.10;;;;;;;2.34;99.88;99537.35;108680;1297;22938;-84
2023/01/23 10:30:54;;;;;;;45.70;41.50;;;;;;;2.35;99.93;99538.38;108595;1297;22407;-84
2023/01/23 10:33:32;;;;;;;18.60;16.90;;;;;;;2.34;99.89;99529.20;108912;1297;22170;-85
2023/01/23 10:36:06;;;;;;;22.70;20.70;;;;;;;2.32;99.87;99525.30;108883;1297;22204;-86
2023/01/23 10:38:54;;;;;;;31.00;28.10;;;;;;;2.31;99.96;99520.58;108928;1297;22174;-86
2023/01/23 10:41:22;;;;;;;18.00;16.50;;;;;;;2.35;100.00;99518.53;108904;1297;22140;-85
2023/01/23 10:43:52;;;;;;;17.90;16.30;;;;;;;2.39;99.84;99513.45;108870;1297;22246;-86
2023/01/23 10:46:26;;;;;;;17.00;15.50;;;;;;;2.41;99.96;99504.16;108846;1297;22895;-86
2023/01/23 10:48:55;;;;;;;20.20;18.40;;;;;;;2.41;99.49;99501.95;108945;1296;22236;-86
2023/01/23 10:51:27;;;;;;;18.90;17.20;;;;;;;2.35;99.56;99500.52;108977;1296;23101;-84
2023/01/23 10:54:01;;;;;;;19.50;17.70;;;;;;;2.31;99.55;99506.75;109010;1296;22914;-83
2023/01/23 10:56:46;;;;;;;20.90;18.90;;;;;;;2.27;99.40;99501.48;108984;1296;22209;-84
2023/01/23 10:59:21;;;;;;;30.00;27.50;;;;;;;2.25;99.54;99502.05;108961;1296;22221;-84
2023/01/23 11:01:56;;;;;;;;;;;;;;;2.35;99.77;99502.45;108966;1296;22470;-83
2023/01/23 11:04:27;;;;;;;27.30;25.00;;;;;;;2.38;99.54;99496.31;108948;1296;22289;-83
2023/01/23 11:07:10;;;;;;;25.80;23.40;;;;;;;2.36;99.43;99493.58;108951;1296;22139;-83
2023/01/23 11:09:49;;;;;;;25.30;23.00;;;;;;;2.32;99.51;99495.66;108958;1296;22209;-85
2023/01/23 11:12:21;;;;;;;22.70;20.60;;;;;;;2.34;99.73;99490.09;108804;1296;22293;-85
2023/01/23 11:14:50;;;;;;;21.40;19.50;;;;;;;2.40;99.57;99485.18;108774;1296;22179;-83
2023/01/23 11:17:32;;;;;;;23.20;21.10;;;;;;;2.49;99.78;99483.20;108976;1296;22359;-84
2023/01/23 11:20:11;;;;;;;24.10;22.00;;;;;;;2.63;99.85;99485.23;108951;1295;22212;-83
2023/01/23 11:22:42;;;;;;;25.00;22.80;;;;;;;2.72;99.91;99479.39;108948;1296;22205;-83
2023/01/23 11:25:38;;;;;;;23.90;21.80;;;;;;;2.76;99.92;99481.13;108808;1296;22788;-85
2023/01/23 11:28:26;;;;;;;24.40;22.20;;;;;;;2.83;99.78;99477.34;108890;1296;22258;-84
2023/01/23 11:31:20;;;;;;;22.80;20.80;;;;;;;2.95;99.87;99474.80;108987;1296;22207;-84
2023/01/23 11:33:56;;;;;;;22.10;20.20;;;;;;;3.04;99.88;99478.59;108727;1296;175550;-85
2023/01/23 11:37:00;;;;;;;22.40;20.40;;;;;;;3.05;99.50;99472.92;108959;1285;22274;-85
2023/01/23 11:39:47;;;;;;;19.80;18.00;;;;;;;2.97;99.05;99475.09;108959;1296;22911;-83
2023/01/23 11:42:16;;;;;;;21.50;19.60;;;;;;;2.95;98.99;99479.68;108913;1295;22256;-85